Overview Statistics Trail Chart Weather Telemetry Raw packets
 

This is the latest recevied weather packets stored in our database for station/object K5IDL. If no packets are shown the sender has not sent any weather packets the latest 10 day(s).

<< 24 25 26 27 28 29 30 >>
Time Temp. Humidity Pressure Rain* Wind** Luminosity Snow
1788540020 33.89° C 57% 1016.1 hPa 0 mm - 566 W/m² -
1788539719 33.33° C 59% 1016.2 hPa 0 mm - 559 W/m² -
1788539414 33.89° C 56% 1016.3 hPa 0 mm - 547 W/m² -
1788539109 33.89° C 58% 1016.1 hPa 0 mm - 532 W/m² -
1788538805 33.89° C 57% 1016.3 hPa 0 mm - 524 W/m² -
1788538499 33.89° C 57% 1016.3 hPa 0 mm - 518 W/m² -
1788538195 33.89° C 58% 1016.3 hPa 0 mm - 503 W/m² -
1788537889 33.33° C 59% 1016.4 hPa 0 mm - 486 W/m² -
1788537585 33.33° C 63% 1016.5 hPa 0 mm - 486 W/m² -
1788537285 33.89° C 60% 1016.2 hPa 0 mm - 473 W/m² -
1788536983 33.33° C 62% 1016.2 hPa 0 mm - 464 W/m² -
1788536678 31.67° C 64% 1016.2 hPa 0 mm - 452 W/m² -
1788536373 33.33° C 64% 1016.1 hPa 0 mm - 434 W/m² -
1788536068 32.78° C 66% 1016.1 hPa 0 mm - 424 W/m² -
1788535765 31.67° C 66% 1016 hPa 0 mm - 412 W/m² -
1788535460 32.22° C 66% 1016.3 hPa 0 mm - 394 W/m² -
1788535159 31.67° C 69% 1016.1 hPa 0 mm - 143 W/m² -
1788534855 30.56° C 72% 1016.1 hPa 0 mm - 365 W/m² -
1788534549 32.22° C 68% 1016.1 hPa 0 mm - 351 W/m² -
1788534245 32.22° C 70% 1016.1 hPa 0 mm - 339 W/m² -
1788533943 31.67° C 70% 1016 hPa 0 mm - 334 W/m² -
1788533639 31.67° C 72% 1015.9 hPa 0 mm - 318 W/m² -
1788533334 30.56° C 75% 1015.9 hPa 0 mm - 309 W/m² -
1788533030 30° C 77% 1016 hPa 0 mm - 283 W/m² -
1788532725 30° C 75% 1016.1 hPa 0 mm - 280 W/m² -

* Rain latest hour (hover to see other rain measurements)
** Current wind speed in m/s (hover to see current wind gust speed)